Pamlico — WX6900 — position and weather

sailwx.info

Track history (hours):
 
Tides and Currents Weather Stations Pressure Air Temp Water Temp Dewpoint Dewpoint Depression Visibility Wind Speed Wind Dir Waves Ship Positions

Pamlico

Owner: PCS Phosphate, AURORA, NC. More information available from US FCC via Universal Licensing System and Coast Guard Vessel Documentation Center.

Last reported at 2015-Apr-18 04:33 UTC. Time now 2015-Apr-18 04:57 UTC.
Position N 34°55' W 076°40'.

Length 30 m; draft 3 m.

MMSI: 367361220.

Date/timePositionNaut miles runAvg speedWind from/ knotsBaromVisibWave heightAir tempDewpointWater temp
2015-Apr-18 04:33N 34°55' W 076°40'5 5.4
2015-Apr-18 03:33N 34°50' W 076°41'6 5.5
2015-Apr-18 02:33N 34°44' W 076°41'2 1.5
2015-Apr-18 01:33N 34°43' W 076°41'1 0.6
2015-Apr-18 00:33N 34°43' W 076°42'0 0.0
2015-Apr-17 23:33N 34°43' W 076°42'0 0.0
2015-Apr-17 22:33N 34°43' W 076°42'0 0.0
2015-Apr-17 21:33N 34°43' W 076°42'0 0.0
2015-Apr-17 20:33N 34°43' W 076°42'0 0.0
2015-Apr-17 19:33N 34°43' W 076°42'1 0.6
2015-Apr-17 18:33N 34°43' W 076°41'6 6.2
2015-Apr-17 17:33N 34°49' W 076°41'8 7.7
2015-Apr-17 16:33N 34°57' W 076°40'2 0.1
2015-Apr-15 20:33N 34°58' W 076°42'5 4.7
2015-Apr-15 19:33N 34°54' W 076°41'4 4.4
2015-Apr-15 18:33N 34°49' W 076°41'4 4.2
2015-Apr-15 17:33N 34°45' W 076°40'2 2.2
2015-Apr-15 16:33N 34°43' W 076°42'0 0.0
2015-Apr-15 15:33N 34°43' W 076°42'0 0.0
2015-Apr-15 14:33N 34°43' W 076°42'0 0.0
2015-Apr-15 13:33N 34°43' W 076°42'0 0.0
2015-Apr-15 12:33N 34°43' W 076°42'0 0.0
2015-Apr-15 11:33N 34°43' W 076°42'0 0.1
2015-Apr-15 10:33N 34°43' W 076°42'1 0.6
2015-Apr-15 09:33N 34°43' W 076°41'1 1.3
2015-Apr-15 08:33N 34°44' W 076°41'5 4.8
2015-Apr-15 07:33N 34°49' W 076°41'5 5.0
2015-Apr-15 06:33N 34°54' W 076°41'5 4.9
2015-Apr-15 05:29N 34°59' W 076°41'1 0.1
2015-Apr-14 16:33N 34°58' W 076°41'6 5.5
2015-Apr-14 15:33N 34°53' W 076°42'6 5.6
2015-Apr-14 14:34N 34°47' W 076°41'4 3.7
2015-Apr-14 13:33N 34°43' W 076°42'0 0.1
2015-Apr-14 12:33N 34°43' W 076°42'4 4.2
2015-Apr-14 11:33N 34°48' W 076°41'5 4.8
2015-Apr-14 10:33N 34°52' W 076°42'5 4.5
2015-Apr-14 09:33N 34°57' W 076°40'3 0.2
2015-Apr-13 21:15N 34°59' W 076°42'5 6.5
2015-Apr-13 20:33N 34°54' W 076°40'7 7.2
2015-Apr-13 19:33N 34°47' W 076°41'4 3.7
2015-Apr-13 18:33N 34°43' W 076°42'0 0.0
2015-Apr-13 17:33N 34°43' W 076°42'0 0.0
2015-Apr-13 16:33N 34°43' W 076°42'0 0.0
2015-Apr-13 15:33N 34°43' W 076°42'0 0.0
2015-Apr-13 14:33N 34°43' W 076°42'0 0.0
2015-Apr-13 13:33N 34°43' W 076°42'0 0.0
2015-Apr-13 12:33N 34°43' W 076°42'0 0.0
2015-Apr-13 11:33N 34°43' W 076°42'0 0.0
2015-Apr-13 10:33N 34°43' W 076°42'0 0.0
2015-Apr-13 09:33N 34°43' W 076°42'0 0.0
2015-Apr-13 08:33N 34°43' W 076°42'0 0.0
2015-Apr-13 07:33N 34°43' W 076°42'0 0.0
2015-Apr-13 06:33N 34°43' W 076°42'0 0.0
2015-Apr-13 05:33N 34°43' W 076°42'0 0.0
2015-Apr-13 04:33N 34°43' W 076°42'0 0.0
2015-Apr-13 03:33N 34°43' W 076°42'0 0.0
2015-Apr-13 02:33N 34°43' W 076°42'0 0.0
2015-Apr-13 01:33N 34°43' W 076°42'6 5.9
2015-Apr-13 00:33N 34°49' W 076°41'6 6.3
2015-Apr-12 23:33N 34°55' W 076°39'13 5.9
2015-Apr-12 21:21N 35°06' W 076°31'5 5.7
2015-Apr-12 20:27N 35°11' W 076°34'13 1.3
2015-Apr-12 10:30N 34°59' W 076°41'6 6.1
2015-Apr-12 09:33N 34°54' W 076°41'7 7.3
2015-Apr-12 08:33N 34°46' W 076°41'3 3.1
2015-Apr-12 07:33N 34°43' W 076°42'3 2.7
2015-Apr-12 06:33N 34°46' W 076°41'5 5.2
2015-Apr-12 05:33N 34°51' W 076°41'5 5.4
2015-Apr-12 04:33N 34°56' W 076°39'6 5.5
2015-Apr-12 03:29N 35°02' W 076°38'7 7.3
2015-Apr-12 02:33N 35°06' W 076°31'6 0.5
2015-Apr-11 13:10N 35°02' W 076°37'5 8.1
2015-Apr-11 12:31N 34°59' W 076°42'5 5.5
2015-Apr-11 11:33N 34°53' W 076°41'6 6.1
2015-Apr-11 10:33N 34°47' W 076°41'4 4.0
2015-Apr-11 09:33N 34°43' W 076°42'2 2.1
2015-Apr-11 08:33N 34°45' W 076°41'5 5.2
2015-Apr-11 07:33N 34°50' W 076°41'4 3.9
2015-Apr-11 06:33N 34°54' W 076°41'5 4.9
2015-Apr-11 05:33N 34°59' W 076°41'8 7.3
2015-Apr-11 04:31N 35°04' W 076°34'6 6.7
2015-Apr-11 03:34N 35°09' W 076°31'15 1.2
2015-Apr-10 15:31N 34°57' W 076°40'6 6.1
2015-Apr-10 14:33N 34°51' W 076°41'7 6.8
2015-Apr-10 13:33N 34°45' W 076°41'1 1.4
2015-Apr-10 12:33N 34°43' W 076°42'6 5.5
2015-Apr-10 11:33N 34°49' W 076°41'6 5.9
2015-Apr-10 10:33N 34°55' W 076°40'12 5.8
2015-Apr-10 08:27N 35°05' W 076°32'5 5.9
2015-Apr-10 07:32N 35°10' W 076°32'10 1.1
2015-Apr-09 22:23N 35°01' W 076°39'5 6.1
2015-Apr-09 21:33N 34°56' W 076°39'6 6.1
2015-Apr-09 20:33N 34°51' W 076°41'6 6.4
2015-Apr-09 19:33N 34°44' W 076°41'1 1.0
2015-Apr-09 18:33N 34°43' W 076°42'0 0.0
2015-Apr-09 17:33N 34°43' W 076°42'0 0.0
2015-Apr-09 16:33N 34°43' W 076°42'0 0.0
2015-Apr-09 15:33N 34°43' W 076°42'0 0.0
2015-Apr-09 14:33N 34°43' W 076°42'0 0.0
2015-Apr-09 13:33N 34°43' W 076°42'0 0.0
2015-Apr-09 12:33N 34°43' W 076°42'0 0.0
2015-Apr-09 11:33N 34°43' W 076°42'0 0.0
2015-Apr-09 10:33N 34°43' W 076°42'0 0.0
2015-Apr-09 09:33N 34°43' W 076°42'0 0.0
2015-Apr-09 08:33N 34°43' W 076°42'0 0.0
2015-Apr-09 07:33N 34°43' W 076°42'0 0.0
2015-Apr-09 06:33N 34°43' W 076°42'0 0.0
2015-Apr-09 05:33N 34°43' W 076°42'0 0.0
2015-Apr-09 04:33N 34°43' W 076°42'0 0.0
2015-Apr-09 03:33N 34°43' W 076°42'0 0.0
2015-Apr-09 02:33N 34°43' W 076°42'0 0.1
2015-Apr-09 01:33N 34°43' W 076°42'4 4.4
2015-Apr-09 00:33N 34°48' W 076°41'6 6.0
2015-Apr-08 23:33N 34°54' W 076°41'5 5.3
2015-Apr-08 22:33N 34°59' W 076°41'  
Track history (hours):
 
Tides and Currents Weather Stations Pressure Air Temp Water Temp Dewpoint Dewpoint Depression Visibility Wind Speed Wind Dir Waves Ship Positions

Pamlico

Owner: PCS Phosphate, AURORA, NC. More information available from US FCC via Universal Licensing System and Coast Guard Vessel Documentation Center.

Last reported at 2015-Apr-18 04:33 UTC. Time now 2015-Apr-18 04:57 UTC.
Position N 34°55' W 076°40'.

Length 30 m; draft 3 m.

MMSI: 367361220.

Date/timePositionNaut miles runAvg speedWind from/ knotsBaromVisibWave heightAir tempDewpointWater temp
2015-Apr-18 04:33N 34°55' W 076°40'5 5.4
2015-Apr-18 03:33N 34°50' W 076°41'6 5.5
2015-Apr-18 02:33N 34°44' W 076°41'2 1.5
2015-Apr-18 01:33N 34°43' W 076°41'1 0.6
2015-Apr-18 00:33N 34°43' W 076°42'0 0.0
2015-Apr-17 23:33N 34°43' W 076°42'0 0.0
2015-Apr-17 22:33N 34°43' W 076°42'0 0.0
2015-Apr-17 21:33N 34°43' W 076°42'0 0.0
2015-Apr-17 20:33N 34°43' W 076°42'0 0.0
2015-Apr-17 19:33N 34°43' W 076°42'1 0.6
2015-Apr-17 18:33N 34°43' W 076°41'6 6.2
2015-Apr-17 17:33N 34°49' W 076°41'8 7.7
2015-Apr-17 16:33N 34°57' W 076°40'2 0.1
2015-Apr-15 20:33N 34°58' W 076°42'5 4.7
2015-Apr-15 19:33N 34°54' W 076°41'4 4.4
2015-Apr-15 18:33N 34°49' W 076°41'4 4.2
2015-Apr-15 17:33N 34°45' W 076°40'2 2.2
2015-Apr-15 16:33N 34°43' W 076°42'0 0.0
2015-Apr-15 15:33N 34°43' W 076°42'0 0.0
2015-Apr-15 14:33N 34°43' W 076°42'0 0.0
2015-Apr-15 13:33N 34°43' W 076°42'0 0.0
2015-Apr-15 12:33N 34°43' W 076°42'0 0.0
2015-Apr-15 11:33N 34°43' W 076°42'0 0.1
2015-Apr-15 10:33N 34°43' W 076°42'1 0.6
2015-Apr-15 09:33N 34°43' W 076°41'1 1.3
2015-Apr-15 08:33N 34°44' W 076°41'5 4.8
2015-Apr-15 07:33N 34°49' W 076°41'5 5.0
2015-Apr-15 06:33N 34°54' W 076°41'5 4.9
2015-Apr-15 05:29N 34°59' W 076°41'1 0.1
2015-Apr-14 16:33N 34°58' W 076°41'6 5.5
2015-Apr-14 15:33N 34°53' W 076°42'6 5.6
2015-Apr-14 14:34N 34°47' W 076°41'4 3.7
2015-Apr-14 13:33N 34°43' W 076°42'0 0.1
2015-Apr-14 12:33N 34°43' W 076°42'4 4.2
2015-Apr-14 11:33N 34°48' W 076°41'5 4.8
2015-Apr-14 10:33N 34°52' W 076°42'5 4.5
2015-Apr-14 09:33N 34°57' W 076°40'3 0.2
2015-Apr-13 21:15N 34°59' W 076°42'5 6.5
2015-Apr-13 20:33N 34°54' W 076°40'7 7.2
2015-Apr-13 19:33N 34°47' W 076°41'4 3.7
2015-Apr-13 18:33N 34°43' W 076°42'0 0.0
2015-Apr-13 17:33N 34°43' W 076°42'0 0.0
2015-Apr-13 16:33N 34°43' W 076°42'0 0.0
2015-Apr-13 15:33N 34°43' W 076°42'0 0.0
2015-Apr-13 14:33N 34°43' W 076°42'0 0.0
2015-Apr-13 13:33N 34°43' W 076°42'0 0.0
2015-Apr-13 12:33N 34°43' W 076°42'0 0.0
2015-Apr-13 11:33N 34°43' W 076°42'0 0.0
2015-Apr-13 10:33N 34°43' W 076°42'0 0.0
2015-Apr-13 09:33N 34°43' W 076°42'0 0.0
2015-Apr-13 08:33N 34°43' W 076°42'0 0.0
2015-Apr-13 07:33N 34°43' W 076°42'0 0.0
2015-Apr-13 06:33N 34°43' W 076°42'0 0.0
2015-Apr-13 05:33N 34°43' W 076°42'0 0.0
2015-Apr-13 04:33N 34°43' W 076°42'0 0.0
2015-Apr-13 03:33N 34°43' W 076°42'0 0.0
2015-Apr-13 02:33N 34°43' W 076°42'0 0.0
2015-Apr-13 01:33N 34°43' W 076°42'6 5.9
2015-Apr-13 00:33N 34°49' W 076°41'6 6.3
2015-Apr-12 23:33N 34°55' W 076°39'13 5.9
2015-Apr-12 21:21N 35°06' W 076°31'5 5.7
2015-Apr-12 20:27N 35°11' W 076°34'13 1.3
2015-Apr-12 10:30N 34°59' W 076°41'6 6.1
2015-Apr-12 09:33N 34°54' W 076°41'7 7.3
2015-Apr-12 08:33N 34°46' W 076°41'3 3.1
2015-Apr-12 07:33N 34°43' W 076°42'3 2.7
2015-Apr-12 06:33N 34°46' W 076°41'5 5.2
2015-Apr-12 05:33N 34°51' W 076°41'5 5.4
2015-Apr-12 04:33N 34°56' W 076°39'6 5.5
2015-Apr-12 03:29N 35°02' W 076°38'7 7.3
2015-Apr-12 02:33N 35°06' W 076°31'6 0.5
2015-Apr-11 13:10N 35°02' W 076°37'5 8.1
2015-Apr-11 12:31N 34°59' W 076°42'5 5.5
2015-Apr-11 11:33N 34°53' W 076°41'6 6.1
2015-Apr-11 10:33N 34°47' W 076°41'4 4.0
2015-Apr-11 09:33N 34°43' W 076°42'2 2.1
2015-Apr-11 08:33N 34°45' W 076°41'5 5.2
2015-Apr-11 07:33N 34°50' W 076°41'4 3.9
2015-Apr-11 06:33N 34°54' W 076°41'5 4.9
2015-Apr-11 05:33N 34°59' W 076°41'8 7.3
2015-Apr-11 04:31N 35°04' W 076°34'6 6.7
2015-Apr-11 03:34N 35°09' W 076°31'15 1.2
2015-Apr-10 15:31N 34°57' W 076°40'6 6.1
2015-Apr-10 14:33N 34°51' W 076°41'7 6.8
2015-Apr-10 13:33N 34°45' W 076°41'1 1.4
2015-Apr-10 12:33N 34°43' W 076°42'6 5.5
2015-Apr-10 11:33N 34°49' W 076°41'6 5.9
2015-Apr-10 10:33N 34°55' W 076°40'12 5.8
2015-Apr-10 08:27N 35°05' W 076°32'5 5.9
2015-Apr-10 07:32N 35°10' W 076°32'10 1.1
2015-Apr-09 22:23N 35°01' W 076°39'5 6.1
2015-Apr-09 21:33N 34°56' W 076°39'6 6.1
2015-Apr-09 20:33N 34°51' W 076°41'6 6.4
2015-Apr-09 19:33N 34°44' W 076°41'1 1.0
2015-Apr-09 18:33N 34°43' W 076°42'0 0.0
2015-Apr-09 17:33N 34°43' W 076°42'0 0.0
2015-Apr-09 16:33N 34°43' W 076°42'0 0.0
2015-Apr-09 15:33N 34°43' W 076°42'0 0.0
2015-Apr-09 14:33N 34°43' W 076°42'0 0.0
2015-Apr-09 13:33N 34°43' W 076°42'0 0.0
2015-Apr-09 12:33N 34°43' W 076°42'0 0.0
2015-Apr-09 11:33N 34°43' W 076°42'0 0.0
2015-Apr-09 10:33N 34°43' W 076°42'0 0.0
2015-Apr-09 09:33N 34°43' W 076°42'0 0.0
2015-Apr-09 08:33N 34°43' W 076°42'0 0.0
2015-Apr-09 07:33N 34°43' W 076°42'0 0.0
2015-Apr-09 06:33N 34°43' W 076°42'0 0.0
2015-Apr-09 05:33N 34°43' W 076°42'0 0.0
2015-Apr-09 04:33N 34°43' W 076°42'0 0.0
2015-Apr-09 03:33N 34°43' W 076°42'0 0.0
2015-Apr-09 02:33N 34°43' W 076°42'0 0.1
2015-Apr-09 01:33N 34°43' W 076°42'4 4.4
2015-Apr-09 00:33N 34°48' W 076°41'6 6.0
2015-Apr-08 23:33N 34°54' W 076°41'5 5.3
2015-Apr-08 22:33N 34°59' W 076°41'  

Dump ship's entire track history